Hurstpierpoint, United Kingdom
Current Conditions -  °F | °C
As of 1:50 PM on Friday 24 Oct 2014 (Local Time) from EGKA Reporting Station
Drizzle Drizzle  
Wind Chill: 16°   Ceiling: 500
Heat Index: 16°   Visibility: 1.1mi
Dew Point: 15°   Wind: 8mph
Humidity: 94%   Direction: 210°SSW
Pressure: 29.94"   Gusts: NA
Location:  50.93°N, 0.18°W
Report Text: EGKA 241250Z 21007KT 1800 -DZ BR SCT002 OVC005 16/15 Q1014
Loading
Personal Weather Stations






























Interactive Weather Map
Tropical Storm Tracking
New forecast layout! Learn more

10-Day Weather Forecast

Advertisements
Track Severe Weather on mobile